Time;durP1;ratioP1;P1;durP2;ratioP2;P2;SDS_P1;SDS_P2;PMS_P1;PMS_P2;Temp;Humidity;BMP_temperature;BMP_pressure;BME280_temperature;BME280_humidity;BME280_pressure;Samples;Min_cycle;Max_cycle;Signal;HPM_P1;HPM_P2
2021/05/31 00:00:48;;;;;;;5.07;3.30;;;9.50;95.20;;;;;;5077079;28;20487;-74
2021/05/31 00:03:13;;;;;;;4.35;3.05;;;9.50;95.70;;;;;;5084139;28;20028;-74
2021/05/31 00:05:39;;;;;;;5.15;3.10;;;9.50;95.20;;;;;;5071257;28;20390;-74
2021/05/31 00:08:05;;;;;;;6.78;3.05;;;9.50;94.80;;;;;;5076226;28;20043;-74
2021/05/31 00:10:30;;;;;;;8.35;3.50;;;9.40;95.80;;;;;;5070011;28;20028;-74
2021/05/31 00:12:56;;;;;;;6.05;3.00;;;9.40;95.00;;;;;;5067663;28;20032;-73
2021/05/31 00:15:21;;;;;;;8.18;2.97;;;9.50;95.10;;;;;;5066641;28;20047;-75
2021/05/31 00:17:48;;;;;;;5.00;3.22;;;9.40;95.80;;;;;;5065464;28;20410;-74
2021/05/31 00:20:15;;;;;;;4.35;2.97;;;9.30;96.40;;;;;;5069987;28;20059;-74
2021/05/31 00:22:40;;;;;;;5.75;2.40;;;9.30;96.50;;;;;;5071752;28;20027;-74
2021/05/31 00:25:08;;;;;;;4.93;2.85;;;9.30;96.30;;;;;;5071143;28;20694;-73
2021/05/31 00:27:35;;;;;;;4.25;3.08;;;9.20;96.60;;;;;;5068050;28;20033;-74
2021/05/31 00:30:01;;;;;;;4.72;2.75;;;9.10;97.00;;;;;;5060512;28;20319;-74
2021/05/31 00:33:09;;;;;;;3.58;2.60;;;9.10;96.90;;;;;;5085962;28;20119;-74
2021/05/31 00:35:15;;;;;;;3.78;2.80;;;9.10;97.10;;;;;;5058082;28;20044;-74
2021/05/31 00:37:41;;;;;;;10.38;2.80;;;9.00;97.30;;;;;;5066327;28;20311;-75
2021/05/31 00:40:13;;;;;;;3.20;2.55;;;9.00;97.60;;;;;;5070051;28;20531;-73
2021/05/31 00:42:39;;;;;;;8.82;3.47;;;9.00;97.80;;;;;;5062251;28;20047;-74
2021/05/31 00:45:07;;;;;;;5.35;2.83;;;9.00;97.70;;;;;;5074620;28;20039;-74
2021/05/31 00:47:32;;;;;;;6.97;2.75;;;9.00;98.00;;;;;;5070791;28;20025;-74
2021/05/31 00:49:58;;;;;;;8.35;2.67;;;9.00;97.80;;;;;;5058915;28;20049;-73
2021/05/31 00:52:24;;;;;;;5.05;3.17;;;8.90;97.80;;;;;;5078563;28;20340;-74
2021/05/31 00:54:50;;;;;;;3.90;2.38;;;8.80;98.60;;;;;;5072024;28;20122;-74
2021/05/31 00:57:16;;;;;;;5.05;2.75;;;8.90;98.30;;;;;;5089346;28;20115;-74
2021/05/31 00:59:42;;;;;;;4.28;3.00;;;8.80;98.40;;;;;;5082464;28;20135;-74
2021/05/31 01:02:08;;;;;;;6.05;2.70;;;8.70;99.10;;;;;;5074262;28;20531;-74
2021/05/31 01:04:33;;;;;;;5.28;3.42;;;8.60;99.70;;;;;;5073501;28;20027;-74
2021/05/31 01:07:24;;;;;;;7.80;2.80;;;8.50;99.90;;;;;;5079122;28;20048;-74
2021/05/31 01:09:56;;;;;;;4.22;2.65;;;8.60;99.90;;;;;;5080595;28;20095;-74
2021/05/31 01:12:37;;;;;;;5.32;3.05;;;8.50;99.90;;;;;;5089667;28;20040;-74
2021/05/31 01:15:29;;;;;;;6.65;2.78;;;8.60;99.90;;;;;;5066817;28;20040;-74
2021/05/31 01:18:19;;;;;;;3.92;2.97;;;8.50;99.70;;;;;;5057140;28;20025;-74
2021/05/31 01:21:21;;;;;;;5.72;2.63;;;8.60;99.40;;;;;;5061531;28;20044;-73
2021/05/31 01:23:52;;;;;;;11.02;3.17;;;8.60;99.90;;;;;;5062544;28;20036;-73
2021/05/31 01:26:21;;;;;;;4.13;2.13;;;8.50;99.90;;;;;;5065669;28;20074;-74
2021/05/31 01:29:10;;;;;;;3.88;2.60;;;8.40;99.90;;;;;;5067404;28;20436;-74
2021/05/31 01:32:01;;;;;;;5.72;3.22;;;8.30;99.90;;;;;;5062823;28;20426;-74
2021/05/31 01:34:30;;;;;;;4.43;2.67;;;8.40;99.90;;;;;;5062654;28;20055;-74
2021/05/31 01:37:10;;;;;;;4.68;2.80;;;8.30;99.90;;;;;;5083444;28;20024;-74
2021/05/31 01:39:38;;;;;;;3.85;2.60;;;8.20;99.90;;;;;;5062539;28;20041;-74
2021/05/31 01:42:05;;;;;;;3.33;2.50;;;8.30;99.90;;;;;;5079354;28;20036;-74
2021/05/31 01:44:31;;;;;;;4.57;2.85;;;8.30;99.90;;;;;;5078220;28;20028;-73
2021/05/31 01:46:56;;;;;;;4.97;2.78;;;8.20;99.90;;;;;;5059404;28;20027;-74
2021/05/31 01:49:23;;;;;;;3.67;2.55;;;8.20;99.90;;;;;;5066159;28;20540;-74
2021/05/31 01:51:50;;;;;;;8.05;3.38;;;8.30;99.90;;;;;;5066151;28;20487;-74
2021/05/31 01:54:17;;;;;;;6.38;2.88;;;8.10;99.90;;;;;;5061102;28;20509;-74
2021/05/31 01:56:46;;;;;;;4.15;2.90;;;8.00;99.90;;;;;;5068429;28;20036;-74
2021/05/31 01:59:13;;;;;;;4.20;3.05;;;8.10;99.90;;;;;;5073340;28;20020;-74
2021/05/31 02:01:39;;;;;;;6.22;2.88;;;8.00;99.90;;;;;;5075248;28;20065;-74
2021/05/31 02:04:05;;;;;;;6.05;2.90;;;7.90;99.90;;;;;;5060669;28;20029;-73
2021/05/31 02:06:30;;;;;;;3.78;2.70;;;7.90;99.90;;;;;;5084557;28;20036;-74
2021/05/31 02:08:56;;;;;;;6.07;2.80;;;7.90;99.90;;;;;;5077199;28;20021;-74
2021/05/31 02:11:25;;;;;;;4.53;2.80;;;8.00;99.90;;;;;;5069214;28;20032;-74
2021/05/31 02:13:55;;;;;;;4.53;3.28;;;7.90;99.90;;;;;;5057995;28;20032;-75
2021/05/31 02:16:27;;;;;;;5.38;3.00;;;7.80;99.90;;;;;;5063542;28;20033;-74
2021/05/31 02:18:54;;;;;;;4.40;2.80;;;7.90;99.90;;;;;;5073491;28;20028;-73
2021/05/31 02:21:20;;;;;;;3.88;2.80;;;7.80;99.90;;;;;;5061993;28;20063;-73
2021/05/31 02:23:48;;;;;;;3.95;2.95;;;7.80;99.90;;;;;;5072314;28;20020;-73
2021/05/31 02:26:17;;;;;;;4.90;3.30;;;7.80;99.90;;;;;;5069962;28;20034;-73
2021/05/31 02:28:45;;;;;;;6.68;2.83;;;7.80;99.90;;;;;;5063381;28;20087;-73
2021/05/31 02:31:10;;;;;;;5.25;3.00;;;7.70;99.90;;;;;;5068336;28;20051;-73
2021/05/31 02:33:36;;;;;;;4.32;2.90;;;7.70;99.90;;;;;;5071316;28;20057;-74
2021/05/31 02:36:06;;;;;;;3.85;2.75;;;7.70;99.90;;;;;;5059856;28;20034;-73
2021/05/31 02:38:32;;;;;;;3.85;2.80;;;7.60;99.90;;;;;;5076326;28;20028;-73
2021/05/31 02:41:04;;;;;;;3.75;2.58;;;7.70;99.90;;;;;;5068267;28;20113;-73
2021/05/31 02:43:29;;;;;;;4.28;2.88;;;7.70;99.90;;;;;;5068212;28;20020;-74
2021/05/31 02:45:55;;;;;;;7.00;2.92;;;7.60;99.90;;;;;;5060438;28;20031;-73
2021/05/31 02:48:22;;;;;;;4.82;3.03;;;7.70;99.90;;;;;;5069431;28;20032;-73
2021/05/31 02:50:48;;;;;;;6.40;3.00;;;7.70;99.90;;;;;;5067083;28;20021;-74
2021/05/31 02:53:14;;;;;;;5.80;3.00;;;7.60;99.90;;;;;;5069417;28;20038;-73
2021/05/31 02:55:39;;;;;;;5.57;3.20;;;7.70;99.90;;;;;;5062109;28;20415;-73
2021/05/31 02:58:05;;;;;;;5.35;3.05;;;7.60;99.90;;;;;;5082516;28;20047;-73
2021/05/31 03:00:31;;;;;;;4.43;2.80;;;7.60;99.90;;;;;;5058434;28;20024;-73
2021/05/31 03:02:57;;;;;;;4.07;2.92;;;7.60;99.90;;;;;;5059517;28;20461;-73
2021/05/31 03:05:28;;;;;;;5.20;3.13;;;7.60;99.90;;;;;;5071745;28;20498;-73
2021/05/31 03:07:57;;;;;;;4.05;2.92;;;7.60;99.90;;;;;;5066008;28;20127;-73
2021/05/31 03:10:24;;;;;;;4.05;2.60;;;7.70;99.90;;;;;;5076241;28;20504;-73
2021/05/31 03:12:49;;;;;;;4.50;3.05;;;7.60;99.90;;;;;;5084221;28;20040;-73
2021/05/31 03:15:16;;;;;;;9.43;3.65;;;7.60;99.90;;;;;;5081537;28;20037;-73
2021/05/31 03:17:43;;;;;;;6.28;2.97;;;7.60;99.90;;;;;;5062790;28;20028;-73
2021/05/31 03:20:09;;;;;;;5.25;3.08;;;7.50;99.90;;;;;;5071365;28;20036;-73
2021/05/31 03:22:35;;;;;;;4.90;2.92;;;7.50;99.90;;;;;;5073648;28;20087;-73
2021/05/31 03:25:01;;;;;;;5.78;3.28;;;7.60;99.90;;;;;;5065986;28;20036;-73
2021/05/31 03:27:27;;;;;;;5.25;3.00;;;7.60;99.90;;;;;;5066913;28;20021;-73
2021/05/31 03:29:52;;;;;;;5.00;3.40;;;7.70;99.90;;;;;;5062654;28;20032;-74
2021/05/31 03:32:18;;;;;;;5.22;3.03;;;7.60;99.90;;;;;;5080949;28;20039;-73
2021/05/31 03:34:43;;;;;;;6.20;3.22;;;7.60;99.90;;;;;;5070219;28;20036;-73
2021/05/31 03:37:09;;;;;;;6.20;3.08;;;7.60;99.90;;;;;;5064055;28;20526;-74
2021/05/31 03:39:34;;;;;;;6.07;2.83;;;7.70;99.90;;;;;;5074639;28;20024;-74
2021/05/31 03:42:00;;;;;;;6.63;3.05;;;7.70;99.90;;;;;;5072229;28;20040;-74
2021/05/31 03:44:25;;;;;;;6.25;3.20;;;7.60;99.90;;;;;;5062239;28;20086;-73
2021/05/31 03:46:51;;;;;;;10.82;3.53;;;7.70;99.90;;;;;;5068397;28;20099;-73
2021/05/31 03:49:16;;;;;;;10.75;3.20;;;7.70;99.90;;;;;;5068204;28;20155;-73
2021/05/31 03:51:44;;;;;;;7.38;3.53;;;7.70;99.90;;;;;;5068389;28;20017;-73
2021/05/31 03:54:10;;;;;;;6.07;3.72;;;7.60;99.90;;;;;;5061183;28;20024;-73
2021/05/31 03:56:35;;;;;;;4.93;3.22;;;7.60;99.90;;;;;;5071138;28;20028;-73
2021/05/31 03:59:01;;;;;;;5.75;3.78;;;7.70;99.90;;;;;;5057599;28;20494;-73
2021/05/31 04:01:26;;;;;;;5.20;3.35;;;7.80;99.90;;;;;;5067372;28;20031;-73
2021/05/31 04:03:52;;;;;;;5.78;3.30;;;7.90;99.90;;;;;;5065466;28;20017;-73
2021/05/31 04:06:25;;;;;;;8.82;3.30;;;7.90;99.90;;;;;;5050851;28;20098;-73
2021/05/31 04:11:35;;;;;;;5.70;3.05;;;8.10;99.90;;;;;;5068608;28;20094;-74
2021/05/31 04:14:02;;;;;;;5.75;3.25;;;8.10;99.90;;;;;;5065416;28;20406;-73
2021/05/31 04:16:28;;;;;;;7.15;3.25;;;8.10;99.90;;;;;;5069017;28;20028;-73
2021/05/31 04:18:53;;;;;;;5.57;3.33;;;8.10;99.90;;;;;;5082389;28;20402;-73
2021/05/31 04:21:19;;;;;;;4.47;3.13;;;8.00;99.90;;;;;;5076263;28;20474;-73
2021/05/31 04:23:44;;;;;;;6.28;3.47;;;8.10;99.90;;;;;;5058587;28;20029;-74
2021/05/31 04:26:09;;;;;;;5.53;3.20;;;8.10;99.90;;;;;;5063533;28;20361;-73
2021/05/31 04:28:35;;;;;;;6.43;3.30;;;8.20;99.90;;;;;;5067995;28;20032;-73
2021/05/31 04:31:00;;;;;;;6.63;3.20;;;8.20;99.90;;;;;;5067744;28;20031;-73
2021/05/31 04:33:26;;;;;;;10.68;3.78;;;8.30;99.90;;;;;;5078497;28;20044;-74
2021/05/31 04:35:51;;;;;;;10.60;3.30;;;8.40;99.90;;;;;;5057852;28;20056;-73
2021/05/31 04:38:17;;;;;;;9.10;3.13;;;8.40;99.90;;;;;;5056187;28;20020;-75
2021/05/31 04:40:42;;;;;;;7.20;3.33;;;8.40;99.90;;;;;;5059459;28;20103;-77
2021/05/31 04:43:08;;;;;;;5.03;3.17;;;8.50;99.90;;;;;;5077461;28;20027;-76
2021/05/31 04:45:34;;;;;;;5.60;3.40;;;8.60;99.90;;;;;;5065310;28;20028;-76
2021/05/31 04:47:59;;;;;;;5.22;3.38;;;8.70;99.90;;;;;;5069048;28;20505;-76
2021/05/31 04:50:26;;;;;;;7.35;3.40;;;8.80;99.90;;;;;;5074452;28;20021;-76
2021/05/31 04:52:51;;;;;;;7.93;3.92;;;8.70;99.90;;;;;;5066696;28;20033;-76
2021/05/31 04:55:18;;;;;;;7.57;3.42;;;8.80;99.90;;;;;;5070466;28;20036;-76
2021/05/31 04:57:45;;;;;;;9.38;3.53;;;8.90;99.90;;;;;;5072222;28;20017;-75
2021/05/31 05:00:11;;;;;;;6.43;3.33;;;9.00;99.90;;;;;;5070787;28;20025;-77
2021/05/31 05:02:37;;;;;;;6.13;3.63;;;9.00;99.90;;;;;;5072434;28;20497;-79
2021/05/31 05:05:03;;;;;;;5.18;3.17;;;9.10;99.90;;;;;;5069671;28;20497;-76
2021/05/31 05:07:28;;;;;;;6.55;3.80;;;9.10;99.90;;;;;;5056442;28;20045;-76
2021/05/31 05:09:54;;;;;;;4.97;3.30;;;9.20;99.90;;;;;;5060612;28;20025;-80
2021/05/31 05:12:19;;;;;;;6.93;3.58;;;9.30;99.90;;;;;;5062845;28;20059;-81
2021/05/31 05:14:45;;;;;;;6.72;3.67;;;9.40;99.90;;;;;;5065388;28;20021;-85
2021/05/31 05:17:10;;;;;;;7.05;3.53;;;9.40;99.90;;;;;;5067715;28;20501;-74
2021/05/31 05:19:36;;;;;;;8.85;3.10;;;9.40;99.90;;;;;;5062517;28;20021;-75
2021/05/31 05:22:08;;;;;;;9.57;3.50;;;9.50;99.90;;;;;;5063269;28;20395;-75
2021/05/31 05:24:33;;;;;;;6.63;3.53;;;9.60;99.90;;;;;;5070194;28;20024;-76
2021/05/31 05:27:05;;;;;;;5.65;3.17;;;9.60;99.90;;;;;;5068059;28;20026;-75
2021/05/31 05:29:32;;;;;;;5.03;3.38;;;9.70;99.90;;;;;;5076642;28;20020;-86
2021/05/31 05:31:59;;;;;;;5.30;3.00;;;9.80;99.90;;;;;;5081829;28;20043;-76
2021/05/31 05:34:25;;;;;;;4.35;2.92;;;9.90;99.90;;;;;;5089213;28;20049;-77
2021/05/31 05:36:59;;;;;;;6.63;3.80;;;9.90;99.90;;;;;;5062262;28;20048;-77
2021/05/31 05:42:32;;;;;;;6.90;3.63;;;10.00;99.90;;;;;;5090514;28;20509;-77
2021/05/31 05:47:48;;;;;;;6.35;3.22;;;10.10;99.90;;;;;;5060487;28;20033;-76
2021/05/31 05:50:16;;;;;;;8.20;3.58;;;10.20;99.90;;;;;;5068777;28;20024;-76
2021/05/31 05:52:42;;;;;;;9.65;3.92;;;10.30;99.90;;;;;;5075680;28;20119;-77
2021/05/31 05:55:09;;;;;;;7.20;3.30;;;10.40;99.90;;;;;;5069112;28;20024;-78
2021/05/31 05:57:36;;;;;;;6.22;3.65;;;10.50;99.90;;;;;;5075354;28;20398;-78
2021/05/31 06:00:17;;;;;;;6.38;3.05;;;10.60;99.90;;;;;;5078074;28;20024;-81
2021/05/31 06:02:43;;;;;;;;;;;10.60;99.90;;;;;;5069331;28;20034;-80
2021/05/31 06:05:09;;;;;;;3.92;2.78;;;10.70;99.90;;;;;;5059953;28;19916;-81
2021/05/31 06:07:35;;;;;;;7.80;3.40;;;10.80;99.90;;;;;;5064727;28;20119;-80
2021/05/31 06:10:01;;;;;;;7.40;4.05;;;10.90;99.90;;;;;;5065150;28;20554;-81
2021/05/31 06:12:27;;;;;;;6.40;3.45;;;11.00;99.90;;;;;;5067470;28;20035;-81
2021/05/31 06:14:53;;;;;;;6.70;3.33;;;11.00;99.90;;;;;;5062933;28;20036;-82
2021/05/31 06:17:19;;;;;;;5.70;3.75;;;11.20;99.90;;;;;;5065883;28;20032;-81
2021/05/31 06:19:45;;;;;;;8.55;3.50;;;11.30;99.90;;;;;;5062821;28;20029;-81
2021/05/31 06:22:10;;;;;;;6.95;3.55;;;11.40;99.90;;;;;;5060665;28;20419;-79
2021/05/31 06:24:36;;;;;;;6.28;3.38;;;11.50;99.90;;;;;;5064414;28;20020;-80
2021/05/31 06:27:01;;;;;;;5.75;3.00;;;11.60;99.90;;;;;;5064719;28;21216;-79
2021/05/31 06:29:27;;;;;;;6.03;3.67;;;11.60;99.90;;;;;;5066398;28;20437;-79
2021/05/31 06:31:53;;;;;;;5.22;3.40;;;11.70;99.90;;;;;;5066979;28;20017;-80
2021/05/31 06:34:18;;;;;;;5.05;3.00;;;11.80;99.90;;;;;;5060179;28;20570;-80
2021/05/31 06:36:45;;;;;;;6.93;3.42;;;11.90;99.90;;;;;;5062926;28;20027;-80
2021/05/31 06:39:11;;;;;;;8.98;3.58;;;11.90;99.90;;;;;;5061196;28;20032;-79
2021/05/31 06:41:38;;;;;;;4.75;3.05;;;12.00;99.90;;;;;;5063272;28;20551;-80
2021/05/31 06:44:05;;;;;;;8.15;3.88;;;12.10;99.90;;;;;;5067197;28;20020;-81
2021/05/31 06:46:30;;;;;;;4.18;2.92;;;12.20;99.90;;;;;;5060771;28;20395;-80
2021/05/31 06:48:56;;;;;;;8.00;3.83;;;12.20;99.90;;;;;;5063613;28;20073;-75
2021/05/31 06:51:21;;;;;;;7.13;3.33;;;12.30;99.90;;;;;;5063297;28;20057;-75
2021/05/31 06:53:47;;;;;;;6.32;3.42;;;12.30;99.90;;;;;;5064285;28;20119;-84
2021/05/31 06:56:13;;;;;;;6.28;3.65;;;12.40;99.80;;;;;;5063172;28;20073;-82
2021/05/31 06:58:38;;;;;;;5.28;3.33;;;12.40;98.40;;;;;;5058731;28;20384;-82
2021/05/31 07:01:06;;;;;;;7.32;3.70;;;12.50;99.90;;;;;;5065393;28;20021;-83
2021/05/31 07:03:32;;;;;;;5.55;3.45;;;12.60;99.90;;;;;;5061116;28;20392;-82
2021/05/31 07:05:57;;;;;;;7.00;3.72;;;12.70;99.50;;;;;;5062483;28;20202;-82
2021/05/31 07:08:25;;;;;;;9.15;4.30;;;12.80;99.60;;;;;;5063827;28;20054;-82
2021/05/31 07:10:52;;;;;;;5.68;3.55;;;12.90;99.00;;;;;;5063979;28;20039;-83
2021/05/31 07:13:20;;;;;;;7.13;3.75;;;12.90;96.80;;;;;;5058974;28;20491;-83
2021/05/31 07:15:47;;;;;;;6.03;3.65;;;13.00;96.70;;;;;;5063073;28;20376;-82
2021/05/31 07:18:12;;;;;;;7.13;3.40;;;13.00;96.80;;;;;;5064631;28;20040;-82
2021/05/31 07:20:38;;;;;;;5.30;3.63;;;13.10;96.40;;;;;;5065155;28;20029;-82
2021/05/31 07:23:03;;;;;;;13.68;3.50;;;13.20;96.40;;;;;;5067230;28;20037;-81
2021/05/31 07:25:29;;;;;;;7.00;3.78;;;13.30;95.20;;;;;;5064242;28;20166;-82
2021/05/31 07:27:57;;;;;;;16.23;4.82;;;13.40;96.00;;;;;;5064862;28;20025;-84
2021/05/31 07:30:23;;;;;;;4.70;3.30;;;13.50;94.50;;;;;;5062711;28;20040;-82
2021/05/31 07:32:49;;;;;;;18.17;3.88;;;13.50;93.40;;;;;;5065332;28;20059;-83
2021/05/31 07:35:14;;;;;;;7.35;3.47;;;13.60;95.00;;;;;;5065397;28;20486;-82
2021/05/31 07:37:40;;;;;;;10.85;3.60;;;13.70;94.80;;;;;;5056254;28;20394;-82
2021/05/31 07:40:08;;;;;;;75.55;13.88;;;13.80;95.40;;;;;;5065470;28;20466;-82
2021/05/31 07:42:34;;;;;;;7.72;4.45;;;13.90;95.00;;;;;;5062650;28;20028;-82
2021/05/31 07:44:59;;;;;;;6.47;4.10;;;14.00;94.00;;;;;;5064285;28;20496;-82
2021/05/31 07:47:25;;;;;;;3.83;3.00;;;14.10;94.30;;;;;;5063677;28;20032;-82
2021/05/31 07:49:50;;;;;;;6.15;3.45;;;14.20;93.50;;;;;;5065331;28;20098;-81
2021/05/31 07:52:19;;;;;;;4.68;3.05;;;14.40;92.10;;;;;;5065481;28;20039;-83
2021/05/31 07:54:47;;;;;;;7.38;3.20;;;14.50;93.20;;;;;;5064207;28;20044;-82
2021/05/31 07:57:13;;;;;;;8.60;3.75;;;14.60;92.50;;;;;;5059296;28;20104;-83
2021/05/31 07:59:39;;;;;;;15.27;3.67;;;14.70;91.90;;;;;;5063612;28;20439;-84
2021/05/31 08:02:04;;;;;;;8.40;3.38;;;14.70;91.70;;;;;;5065591;28;20442;-83
2021/05/31 08:04:30;;;;;;;8.88;3.60;;;14.80;91.00;;;;;;5060895;28;20055;-83
2021/05/31 08:06:59;;;;;;;15.52;4.47;;;14.90;90.70;;;;;;5062876;28;20072;-84
2021/05/31 08:09:24;;;;;;;7.57;3.67;;;15.10;90.50;;;;;;5063620;28;20037;-83
2021/05/31 08:11:50;;;;;;;13.38;4.88;;;15.10;91.60;;;;;;5065250;28;20051;-83
2021/05/31 08:14:15;;;;;;;26.60;6.75;;;15.20;90.90;;;;;;5064951;28;20478;-83
2021/05/31 08:16:41;;;;;;;10.45;4.30;;;15.20;89.00;;;;;;5066939;28;20537;-83
2021/05/31 08:19:06;;;;;;;7.43;2.95;;;15.30;91.30;;;;;;5068872;28;20024;-83
2021/05/31 08:21:32;;;;;;;4.82;3.40;;;15.40;90.30;;;;;;5066041;28;20451;-82
2021/05/31 08:23:57;;;;;;;5.18;3.30;;;15.60;87.40;;;;;;5069716;28;20025;-85
2021/05/31 08:26:23;;;;;;;7.68;3.92;;;15.70;85.80;;;;;;5069446;28;20028;-84
2021/05/31 08:28:48;;;;;;;7.05;3.33;;;15.60;82.30;;;;;;5069648;28;20107;-84
2021/05/31 08:31:14;;;;;;;7.70;3.35;;;15.60;85.20;;;;;;5067774;28;20107;-84
2021/05/31 08:33:40;;;;;;;6.97;3.30;;;15.90;86.30;;;;;;5068187;28;20024;-82
2021/05/31 08:36:06;;;;;;;12.07;2.88;;;15.90;79.20;;;;;;5063204;28;20550;-83
2021/05/31 08:38:32;;;;;;;19.23;5.75;;;15.90;80.90;;;;;;5068053;28;20022;-83
2021/05/31 08:40:59;;;;;;;10.88;3.22;;;16.10;83.10;;;;;;5065616;28;20445;-84
2021/05/31 08:43:24;;;;;;;5.40;3.40;;;16.10;80.30;;;;;;5068825;28;20074;-84
2021/05/31 08:45:50;;;;;;;4.63;2.97;;;16.10;79.10;;;;;;5066886;28;20036;-83
2021/05/31 08:48:16;;;;;;;3.55;2.30;;;16.10;76.60;;;;;;5068252;28;20056;-83
2021/05/31 08:50:41;;;;;;;8.13;2.72;;;16.20;78.40;;;;;;5068980;28;20032;-83
2021/05/31 08:53:07;;;;;;;7.35;2.75;;;16.50;77.80;;;;;;5067366;28;20023;-83
2021/05/31 08:55:33;;;;;;;11.50;2.88;;;16.50;76.10;;;;;;5066170;28;20028;-84
2021/05/31 08:58:00;;;;;;;6.25;2.97;;;16.50;77.30;;;;;;5068534;28;20028;-85
2021/05/31 09:00:30;;;;;;;2.83;2.50;;;16.60;80.20;;;;;;5067711;28;20028;-82
2021/05/31 09:03:00;;;;;;;2.67;1.85;;;16.80;74.80;;;;;;5064166;28;20052;-82
2021/05/31 09:05:41;;;;;;;2.25;1.90;;;17.00;70.60;;;;;;5066598;28;20031;-76
2021/05/31 09:08:08;;;;;;;3.00;1.80;;;17.00;68.70;;;;;;5066487;28;20123;-76
2021/05/31 09:10:44;;;;;;;10.80;2.55;;;17.00;63.70;;;;;;5061576;28;20045;-77
2021/05/31 09:13:12;;;;;;;8.25;2.78;;;17.00;64.40;;;;;;5070070;28;20039;-78
2021/05/31 09:15:39;;;;;;;14.73;4.18;;;17.10;67.30;;;;;;5069961;28;20058;-77
2021/05/31 09:18:05;;;;;;;8.10;2.72;;;17.00;63.90;;;;;;5067141;28;20102;-78
2021/05/31 09:20:31;;;;;;;4.05;2.25;;;17.00;66.00;;;;;;5070631;28;20078;-77
2021/05/31 09:22:58;;;;;;;3.13;2.08;;;17.10;66.10;;;;;;5070409;28;20027;-77
2021/05/31 09:25:28;;;;;;;8.68;2.50;;;17.30;64.80;;;;;;5069439;28;20028;-78
2021/05/31 09:27:54;;;;;;;3.05;2.17;;;17.30;65.50;;;;;;5069515;28;20025;-77
2021/05/31 09:30:30;;;;;;;3.95;2.28;;;17.30;61.00;;;;;;5070184;28;20400;-77
2021/05/31 09:32:56;;;;;;;3.88;1.98;;;17.20;65.00;;;;;;5070223;28;20233;-77
2021/05/31 09:35:23;;;;;;;7.63;3.00;;;17.30;65.40;;;;;;5069997;28;20103;-78
2021/05/31 09:37:50;;;;;;;3.80;2.13;;;17.40;70.10;;;;;;5069319;28;20111;-78
2021/05/31 09:40:26;;;;;;;5.43;2.40;;;17.40;66.60;;;;;;5059624;28;20028;-77
2021/05/31 09:42:54;;;;;;;3.83;1.85;;;17.50;67.20;;;;;;5070380;28;20021;-78
2021/05/31 09:45:20;;;;;;;6.05;2.33;;;17.70;65.50;;;;;;5069900;28;20033;-78
2021/05/31 09:47:46;;;;;;;3.22;2.10;;;17.80;65.00;;;;;;5069092;28;20052;-78
2021/05/31 09:50:24;;;;;;;3.22;1.92;;;18.00;64.50;;;;;;5066701;28;20048;-78
2021/05/31 09:53:03;;;;;;;3.08;1.80;;;18.00;61.80;;;;;;5063764;28;20036;-78
2021/05/31 09:55:55;;;;;;;3.25;1.85;;;18.00;62.10;;;;;;5070007;28;20025;-77
2021/05/31 09:58:23;;;;;;;4.28;2.08;;;18.00;61.90;;;;;;5073601;28;20040;-78
2021/05/31 10:00:59;;;;;;;8.10;2.03;;;18.00;62.10;;;;;;5083164;28;20042;-78
2021/05/31 10:08:40;;;;;;;2.83;1.95;;;18.20;59.80;;;;;;5069672;28;20025;-78
2021/05/31 10:11:01;;;;;;;1.70;1.60;;;18.30;64.80;;;;;;5069545;28;20020;-78
2021/05/31 10:13:28;;;;;;;3.88;1.70;;;18.20;58.20;;;;;;5067644;28;20085;-77
2021/05/31 10:16:00;;;;;;;2.28;1.60;;;18.40;61.50;;;;;;5069241;28;20104;-77
2021/05/31 10:18:28;;;;;;;5.03;1.88;;;18.50;59.90;;;;;;5069312;28;20031;-78
2021/05/31 10:20:54;;;;;;;5.03;2.35;;;18.70;60.20;;;;;;5069215;28;20054;-78
2021/05/31 10:23:19;;;;;;;3.53;1.80;;;18.80;59.00;;;;;;5057796;28;20059;-78
2021/05/31 10:25:51;;;;;;;3.60;1.95;;;18.90;60.90;;;;;;5066015;28;20421;-78
2021/05/31 10:28:22;;;;;;;4.13;1.75;;;18.90;58.20;;;;;;5069345;28;20059;-78
2021/05/31 10:30:52;;;;;;;7.95;2.45;;;18.90;57.60;;;;;;5068832;28;20036;-78
2021/05/31 10:33:19;;;;;;;3.08;1.75;;;18.90;55.60;;;;;;5060855;28;20037;-78
2021/05/31 10:35:46;;;;;;;3.90;1.60;;;18.80;55.70;;;;;;5068766;28;20060;-78
2021/05/31 10:38:14;;;;;;;2.55;1.80;;;19.00;54.20;;;;;;5067992;28;20331;-77
2021/05/31 10:40:45;;;;;;;3.17;1.98;;;19.10;55.80;;;;;;5068445;28;20025;-79
2021/05/31 10:43:16;;;;;;;4.18;1.90;;;19.20;52.20;;;;;;5068757;28;20032;-78
2021/05/31 10:45:42;;;;;;;2.72;1.58;;;19.40;57.20;;;;;;5059928;28;20218;-76
2021/05/31 10:48:19;;;;;;;2.30;1.67;;;19.60;56.20;;;;;;5066668;28;20032;-77
2021/05/31 10:50:53;;;;;;;2.22;1.73;;;19.90;54.30;;;;;;5058318;28;20029;-76
2021/05/31 10:56:02;;;;;;;1.77;1.35;;;20.30;57.30;;;;;;5069152;28;20032;-76
2021/05/31 10:58:39;;;;;;;1.90;1.38;;;20.40;57.00;;;;;;5075243;28;20059;-78
2021/05/31 11:01:10;;;;;;;1.55;1.45;;;20.50;53.60;;;;;;5064548;28;20483;-77
2021/05/31 11:03:51;;;;;;;5.45;1.85;;;20.80;54.60;;;;;;5068008;28;20035;-78
2021/05/31 11:06:19;;;;;;;4.03;1.63;;;21.00;50.70;;;;;;5068286;28;20041;-78
2021/05/31 11:08:56;;;;;;;2.15;1.50;;;21.20;51.60;;;;;;5067778;28;20040;-79
2021/05/31 11:11:26;;;;;;;3.08;1.80;;;21.40;49.00;;;;;;5071531;28;20036;-80
2021/05/31 11:13:53;;;;;;;3.30;1.65;;;21.70;49.50;;;;;;5065640;28;20028;-78
2021/05/31 11:16:19;;;;;;;3.65;1.70;;;21.90;47.60;;;;;;5068598;28;20029;-78
2021/05/31 11:18:46;;;;;;;5.88;1.55;;;22.30;47.40;;;;;;5081904;28;20031;-77
2021/05/31 11:21:27;;;;;;;2.13;1.50;;;22.50;48.60;;;;;;5073398;28;20029;-78
2021/05/31 11:23:58;;;;;;;2.83;1.25;;;22.80;45.80;;;;;;5058481;28;20037;-78
2021/05/31 11:26:27;;;;;;;2.17;1.35;;;23.20;46.50;;;;;;5070416;28;20036;-78
2021/05/31 11:28:55;;;;;;;4.32;1.60;;;23.50;48.20;;;;;;5074449;28;20543;-90
2021/05/31 11:31:21;;;;;;;1.55;1.45;;;24.10;46.70;;;;;;5081251;28;20058;-84
2021/05/31 11:33:53;;;;;;;2.72;1.50;;;24.60;42.50;;;;;;5071345;28;20046;-85
2021/05/31 11:36:29;;;;;;;2.50;1.42;;;25.10;43.70;;;;;;5070411;28;20093;-85
2021/05/31 11:38:54;;;;;;;2.20;1.40;;;25.50;45.20;;;;;;5074055;28;20025;-83
2021/05/31 11:41:31;;;;;;;1.30;1.20;;;25.80;41.30;;;;;;5074460;28;20686;-81
2021/05/31 11:43:57;;;;;;;1.75;1.20;;;26.10;44.00;;;;;;5074797;28;20271;-92
2021/05/31 11:46:22;;;;;;;1.80;1.50;;;26.80;41.40;;;;;;5076049;28;20075;-85
2021/05/31 11:48:49;;;;;;;8.63;2.45;;;27.20;40.40;;;;;;5073829;28;20486;-86
2021/05/31 11:51:15;;;;;;;2.78;1.77;;;27.70;39.90;;;;;;5074078;28;20051;-87
2021/05/31 11:53:48;;;;;;;10.27;2.35;;;27.90;35.30;;;;;;5064105;28;20033;-81
2021/05/31 11:56:13;;;;;;;21.70;6.10;;;28.20;39.50;;;;;;5060311;28;20083;-84
2021/05/31 11:58:40;;;;;;;6.07;2.50;;;28.30;36.40;;;;;;5078081;28;20021;-85
2021/05/31 12:01:09;;;;;;;4.90;1.90;;;28.60;35.70;;;;;;5085282;28;20419;-82
2021/05/31 12:03:37;;;;;;;8.52;2.85;;;28.90;36.20;;;;;;5065347;28;20037;-85
2021/05/31 12:06:10;;;;;;;20.08;4.57;;;28.90;38.00;;;;;;5064489;28;20033;-84
2021/05/31 12:08:36;;;;;;;3.47;2.35;;;29.70;34.20;;;;;;5063229;28;20032;-83
2021/05/31 12:11:02;;;;;;;4.70;1.58;;;29.90;35.40;;;;;;5064396;28;20029;-84
2021/05/31 12:13:29;;;;;;;2.65;1.80;;;30.30;35.30;;;;;;5064043;28;20075;-83
2021/05/31 12:15:55;;;;;;;3.85;2.00;;;30.70;34.50;;;;;;5070487;28;20037;-86
2021/05/31 12:18:20;;;;;;;2.95;1.65;;;31.10;33.40;;;;;;5071676;28;20039;-85
2021/05/31 12:20:46;;;;;;;4.25;2.00;;;31.50;33.80;;;;;;5062783;28;20032;-84
2021/05/31 12:23:19;;;;;;;1.75;1.55;;;31.80;33.10;;;;;;5060099;28;20029;-85
2021/05/31 12:25:45;;;;;;;10.73;2.67;;;31.80;33.90;;;;;;5065135;28;20032;-84
2021/05/31 12:28:11;;;;;;;1.75;1.48;;;32.20;32.30;;;;;;5066437;28;20593;-85
2021/05/31 12:30:36;;;;;;;5.07;2.20;;;32.10;32.00;;;;;;5071711;28;20030;-85
2021/05/31 12:33:10;;;;;;;1.90;1.70;;;32.10;31.30;;;;;;5070748;28;20032;-86
2021/05/31 12:35:35;;;;;;;3.22;1.67;;;32.50;31.40;;;;;;5082268;28;20063;-84
2021/05/31 12:38:01;;;;;;;1.80;1.70;;;32.70;32.00;;;;;;5057367;28;20488;-85
2021/05/31 12:40:27;;;;;;;4.80;1.80;;;32.90;28.20;;;;;;5078890;28;20102;-85
2021/05/31 12:42:52;;;;;;;4.97;1.77;;;33.20;28.40;;;;;;5063947;28;20028;-80
2021/05/31 12:45:19;;;;;;;3.13;2.10;;;32.70;28.80;;;;;;5060916;28;20383;-78
2021/05/31 12:47:46;;;;;;;9.75;3.10;;;32.40;28.90;;;;;;5059928;28;20120;-77
2021/05/31 12:50:24;;;;;;;1.88;1.60;;;32.60;28.30;;;;;;5068703;28;20446;-78
2021/05/31 12:52:50;;;;;;;2.17;1.70;;;33.00;27.20;;;;;;5067192;28;20036;-81
2021/05/31 12:55:26;;;;;;;3.92;1.60;;;32.90;28.30;;;;;;5064335;28;20052;-75
2021/05/31 12:57:53;;;;;;;3.95;1.70;;;32.40;27.20;;;;;;5065382;28;20028;-76
2021/05/31 13:00:21;;;;;;;3.05;1.60;;;32.40;28.80;;;;;;5055442;28;20036;-76
2021/05/31 13:02:49;;;;;;;2.33;1.60;;;32.70;27.70;;;;;;5065604;28;20521;-76
2021/05/31 13:05:16;;;;;;;1.63;1.48;;;32.80;29.40;;;;;;5066628;28;20484;-76
2021/05/31 13:07:51;;;;;;;6.07;1.83;;;33.20;27.80;;;;;;5072596;28;20027;-73
2021/05/31 13:10:27;;;;;;;5.57;1.33;;;33.50;27.50;;;;;;5064122;28;20035;-73